METAR AND TAF INFORMATION
METAR FOR EBLG
ADDS - METARS form results

(1441 UTC 17 July 2019)
Data provider http://aviationweather.gov/metar/data/
 
METAR text: EBLG 171420Z 04004KT 340V150 9999 FEW042 23/11 Q1015 NOSIG
Conditions at: EBLG (BIERSET/LIEGE (C, BE) observed 1420 UTC 17 July 2019
Temperature: 23.0°C (73°F)
Dewpoint: 11.0°C (52°F) [RH = 47%]
Pressure (altimeter): 29.97 inches Hg (1015.0 mb)
Winds: from the NE (40 degrees) at 5 MPH (4 knots; 2.1 m/s)
Visibility: 6 or more miles (10+ km)
Ceiling: at least 12,000 feet AGL
Clouds: few clouds at 4200 feet AGL
Weather: no significant weather observed at this time

METAR text: EBLG 171350Z 04005KT 320V120 9999 FEW040 23/11 Q1015 NOSIG
Conditions at: EBLG (BIERSET/LIEGE (C, BE) observed 1350 UTC 17 July 2019
Temperature: 23.0°C (73°F)
Dewpoint: 11.0°C (52°F) [RH = 47%]
Pressure (altimeter): 29.97 inches Hg (1015.0 mb)
Winds: from the NE (40 degrees) at 6 MPH (5 knots; 2.6 m/s)
Visibility: 6 or more miles (10+ km)
Ceiling: at least 12,000 feet AGL
Clouds: few clouds at 4000 feet AGL
Weather: no significant weather observed at this time

Forecast for: EBLG (BIERSET/LIEGE (C, BE)
Text: TAF EBLG 171104Z 1712/1818 VRB05KT 9999 FEW030
Forecast period: 1200 UTC 17 July 2019 to 1800 UTC 18 July 2019
Forecast type: FROM: standard forecast or significant change
Winds: variable direction winds at 6 MPH (5 knots; 2.6 m/s)
Visibility: 6 or more miles 10+ km)
Ceiling: at least 12,000 feet AGL
Clouds: few clouds at 3000 feet AGL
Weather: no significant weather forecast for this period

 AIRPORT MAP

 RUNWAY INFORMATION
Runway 05L Runway length 7677 ft Runway width 148 ft
Runway elevation 637 ft Runway displaced threshold 0 ft Runway heading 45
Runway 23R Runway length 7677 ft Runway width 148 ft
Runway elevation 585 ft Runway displaced threshold 0 ft Runway heading 225
Runway 05R Runway length 10784 ft Runway width 148 ft
Runway elevation 652 ft Runway displaced threshold 774 ft Runway heading 45
Runway 23L Runway length 10784 ft Runway width 148 ft
Runway elevation 603 ft Runway displaced threshold 0 ft Runway heading 225

 AIRPORT FREQUENCIES
Type A/D Name APP Frequency 119.275 MHZ
Type ATIS Name ATIS Frequency 126.25 MHZ
Type CLD Name CLNC DEL Frequency 121.8 MHZ
Type GND Name GND Frequency 121.925 MHZ
Type TWR Name TWR Frequency 129.25 MHZ

 AIRPORT NEAR NAVIGATION AIDS
Type NDB Name Liege Frequency 349 KHZ
Type VOR-DME Name Liege Frequency 115450 KHZ
Type NDB Name Liege Frequency 290 KHZ



>